sensor_id;sensor_type;location;lat;lon;timestamp;pressure;altitude;pressure_sealevel;temperature;humidity
49841;BME280;35738;49.890;5.930;2023-02-04T00:00:12;97182.88;;;6.20;100.00
49841;BME280;35738;49.890;5.930;2023-02-04T00:02:40;97179.88;;;6.21;100.00
49841;BME280;35738;49.890;5.930;2023-02-04T00:05:08;97172.53;;;6.27;100.00
49841;BME280;35738;49.890;5.930;2023-02-04T00:07:35;97174.69;;;6.25;100.00
49841;BME280;35738;49.890;5.930;2023-02-04T00:10:03;97176.34;;;6.21;100.00
49841;BME280;35738;49.890;5.930;2023-02-04T00:12:30;97172.22;;;6.18;100.00
49841;BME280;35738;49.890;5.930;2023-02-04T00:14:56;97173.31;;;6.17;100.00
49841;BME280;35738;49.890;5.930;2023-02-04T00:17:23;97173.59;;;6.16;100.00
49841;BME280;35738;49.890;5.930;2023-02-04T00:19:49;97170.88;;;6.26;100.00
49841;BME280;35738;49.890;5.930;2023-02-04T00:22:16;97173.06;;;6.19;100.00
49841;BME280;35738;49.890;5.930;2023-02-04T00:24:43;97175.25;;;6.27;100.00
49841;BME280;35738;49.890;5.930;2023-02-04T00:27:13;97172.53;;;6.27;100.00
49841;BME280;35738;49.890;5.930;2023-02-04T00:29:40;97176.88;;;6.23;100.00
49841;BME280;35738;49.890;5.930;2023-02-04T00:32:07;97171.97;;;6.20;100.00
49841;BME280;35738;49.890;5.930;2023-02-04T00:34:34;97181.25;;;6.19;100.00
49841;BME280;35738;49.890;5.930;2023-02-04T00:37:01;97181.50;;;6.12;100.00
49841;BME280;35738;49.890;5.930;2023-02-04T00:39:28;97181.25;;;6.29;100.00
49841;BME280;35738;49.890;5.930;2023-02-04T00:41:54;97192.19;;;6.29;100.00
49841;BME280;35738;49.890;5.930;2023-02-04T00:44:21;97190.56;;;6.28;100.00
49841;BME280;35738;49.890;5.930;2023-02-04T00:46:47;97175.78;;;6.24;100.00
49841;BME280;35738;49.890;5.930;2023-02-04T00:49:14;97185.63;;;6.30;100.00
49841;BME280;35738;49.890;5.930;2023-02-04T00:51:41;97185.63;;;6.30;100.00
49841;BME280;35738;49.890;5.930;2023-02-04T00:54:12;97191.13;;;6.35;100.00
49841;BME280;35738;49.890;5.930;2023-02-04T00:56:41;97188.91;;;6.27;100.00
49841;BME280;35738;49.890;5.930;2023-02-04T00:59:09;97180.72;;;6.27;100.00
49841;BME280;35738;49.890;5.930;2023-02-04T01:01:36;97181.53;;;6.27;100.00
49841;BME280;35738;49.890;5.930;2023-02-04T01:04:03;97182.63;;;6.31;100.00
49841;BME280;35738;49.890;5.930;2023-02-04T01:06:29;97191.66;;;6.27;100.00
49841;BME280;35738;49.890;5.930;2023-02-04T01:08:56;97185.09;;;6.28;100.00
49841;BME280;35738;49.890;5.930;2023-02-04T01:11:23;97182.63;;;6.31;100.00
49841;BME280;35738;49.890;5.930;2023-02-04T01:13:49;97181.53;;;6.27;100.00
49841;BME280;35738;49.890;5.930;2023-02-04T01:16:16;97177.44;;;6.30;100.00
49841;BME280;35738;49.890;5.930;2023-02-04T01:18:43;97178.53;;;6.24;100.00
49841;BME280;35738;49.890;5.930;2023-02-04T01:21:09;97180.72;;;6.27;100.00
49841;BME280;35738;49.890;5.930;2023-02-04T01:23:36;97182.63;;;6.26;100.00
49841;BME280;35738;49.890;5.930;2023-02-04T01:26:03;97175.50;;;6.20;100.00
49841;BME280;35738;49.890;5.930;2023-02-04T01:28:30;97177.44;;;6.25;100.00
49841;BME280;35738;49.890;5.930;2023-02-04T01:30:56;97179.63;;;6.28;100.00
49841;BME280;35738;49.890;5.930;2023-02-04T01:33:23;97190.53;;;6.23;100.00
49841;BME280;35738;49.890;5.930;2023-02-04T01:35:50;97185.63;;;6.25;100.00
49841;BME280;35738;49.890;5.930;2023-02-04T01:38:17;97182.63;;;6.26;100.00
49841;BME280;35738;49.890;5.930;2023-02-04T01:40:43;97182.06;;;6.19;100.00
49841;BME280;35738;49.890;5.930;2023-02-04T01:43:10;97173.88;;;6.24;100.00
49841;BME280;35738;49.890;5.930;2023-02-04T01:45:37;97184.53;;;6.21;100.00
49841;BME280;35738;49.890;5.930;2023-02-04T01:48:05;97185.06;;;6.23;100.00
49841;BME280;35738;49.890;5.930;2023-02-04T01:50:33;97186.72;;;6.19;100.00
49841;BME280;35738;49.890;5.930;2023-02-04T01:53:00;97186.72;;;6.19;100.00
49841;BME280;35738;49.890;5.930;2023-02-04T01:55:29;97195.75;;;6.29;100.00
49841;BME280;35738;49.890;5.930;2023-02-04T01:57:57;97198.75;;;6.23;100.00
49841;BME280;35738;49.890;5.930;2023-02-04T02:00:27;97193.53;;;6.21;100.00
49841;BME280;35738;49.890;5.930;2023-02-04T02:02:54;97199.28;;;6.25;100.00
49841;BME280;35738;49.890;5.930;2023-02-04T02:05:27;97188.91;;;6.22;100.00
49841;BME280;35738;49.890;5.930;2023-02-04T02:07:56;97196.00;;;6.23;100.00
49841;BME280;35738;49.890;5.930;2023-02-04T02:10:25;97187.25;;;6.21;100.00
49841;BME280;35738;49.890;5.930;2023-02-04T02:12:52;97185.63;;;6.25;100.00
49841;BME280;35738;49.890;5.930;2023-02-04T02:15:20;97174.41;;;6.21;100.00
49841;BME280;35738;49.890;5.930;2023-02-04T02:17:47;97170.31;;;6.19;100.00
49841;BME280;35738;49.890;5.930;2023-02-04T02:20:15;97175.25;;;6.22;100.00
49841;BME280;35738;49.890;5.930;2023-02-04T02:22:48;97174.69;;;6.25;100.00
49841;BME280;35738;49.890;5.930;2023-02-04T02:25:18;97164.59;;;6.25;100.00
49841;BME280;35738;49.890;5.930;2023-02-04T02:27:45;97170.06;;;6.30;100.00
49841;BME280;35738;49.890;5.930;2023-02-04T02:30:13;97160.50;;;6.28;100.00
49841;BME280;35738;49.890;5.930;2023-02-04T02:32:44;97170.34;;;6.34;100.00
49841;BME280;35738;49.890;5.930;2023-02-04T02:35:11;97161.59;;;6.37;100.00
49841;BME280;35738;49.890;5.930;2023-02-04T02:37:39;97168.72;;;6.38;100.00
49841;BME280;35738;49.890;5.930;2023-02-04T02:40:06;97159.97;;;6.36;100.00
49841;BME280;35738;49.890;5.930;2023-02-04T02:42:33;97166.25;;;6.42;100.00
49841;BME280;35738;49.890;5.930;2023-02-04T02:45:04;97175.53;;;6.35;100.00
49841;BME280;35738;49.890;5.930;2023-02-04T02:47:32;97174.19;;;6.38;100.00
49841;BME280;35738;49.890;5.930;2023-02-04T02:49:58;97174.44;;;6.42;100.00
49841;BME280;35738;49.890;5.930;2023-02-04T02:52:25;97178.53;;;6.34;100.00
49841;BME280;35738;49.890;5.930;2023-02-04T02:54:52;97175.00;;;6.33;100.00
49841;BME280;35738;49.890;5.930;2023-02-04T02:57:21;97174.72;;;6.35;100.00
49841;BME280;35738;49.890;5.930;2023-02-04T02:59:48;97194.41;;;6.42;100.00
49841;BME280;35738;49.890;5.930;2023-02-04T03:02:19;97183.47;;;6.37;100.00
49841;BME280;35738;49.890;5.930;2023-02-04T03:04:54;97187.28;;;6.36;100.00
49841;BME280;35738;49.890;5.930;2023-02-04T03:07:23;97178.28;;;6.35;100.00
49841;BME280;35738;49.890;5.930;2023-02-04T03:09:49;97192.22;;;6.39;100.00
49841;BME280;35738;49.890;5.930;2023-02-04T03:12:19;97200.13;;;6.35;100.00
49841;BME280;35738;49.890;5.930;2023-02-04T03:14:45;97198.50;;;6.34;100.00
49841;BME280;35738;49.890;5.930;2023-02-04T03:17:12;97200.69;;;6.43;100.00
49841;BME280;35738;49.890;5.930;2023-02-04T03:19:39;97197.97;;;6.43;100.00
49841;BME280;35738;49.890;5.930;2023-02-04T03:22:06;97195.22;;;6.43;100.00
49841;BME280;35738;49.890;5.930;2023-02-04T03:24:35;97198.78;;;6.43;100.00
49841;BME280;35738;49.890;5.930;2023-02-04T03:27:02;97205.91;;;6.49;100.00
49841;BME280;35738;49.890;5.930;2023-02-04T03:29:29;97206.97;;;6.48;100.00
49841;BME280;35738;49.890;5.930;2023-02-04T03:31:56;97216.28;;;6.47;100.00
49841;BME280;35738;49.890;5.930;2023-02-04T03:34:25;97216.00;;;6.44;100.00
49841;BME280;35738;49.890;5.930;2023-02-04T03:36:52;97213.81;;;6.46;100.00
49841;BME280;35738;49.890;5.930;2023-02-04T03:39:18;97212.16;;;6.45;100.00
49841;BME280;35738;49.890;5.930;2023-02-04T03:41:45;97219.53;;;6.44;100.00
49841;BME280;35738;49.890;5.930;2023-02-04T03:44:11;97227.47;;;6.41;100.00
49841;BME280;35738;49.890;5.930;2023-02-04T03:46:38;97229.94;;;6.42;100.00
49841;BME280;35738;49.890;5.930;2023-02-04T03:49:04;97219.00;;;6.42;100.00
49841;BME280;35738;49.890;5.930;2023-02-04T03:51:31;97234.03;;;6.50;100.00
49841;BME280;35738;49.890;5.930;2023-02-04T03:53:57;97229.94;;;6.52;100.00
49841;BME280;35738;49.890;5.930;2023-02-04T03:56:24;97234.88;;;6.55;100.00
49841;BME280;35738;49.890;5.930;2023-02-04T03:58:51;97232.66;;;6.47;100.00
49841;BME280;35738;49.890;5.930;2023-02-04T04:01:17;97238.16;;;6.62;100.00
49841;BME280;35738;49.890;5.930;2023-02-04T04:03:44;97236.25;;;6.63;100.00
49841;BME280;35738;49.890;5.930;2023-02-04T04:06:10;97238.69;;;6.44;100.00
49841;BME280;35738;49.890;5.930;2023-02-04T04:08:37;97245.25;;;6.48;100.00
49841;BME280;35738;49.890;5.930;2023-02-04T04:11:04;97245.50;;;6.42;100.00
49841;BME280;35738;49.890;5.930;2023-02-04T04:13:31;97257.75;;;6.29;100.00
49841;BME280;35738;49.890;5.930;2023-02-04T04:15:57;97260.72;;;6.17;100.00
49841;BME280;35738;49.890;5.930;2023-02-04T04:18:24;97254.47;;;6.27;100.00
49841;BME280;35738;49.890;5.930;2023-02-04T04:20:50;97254.97;;;6.14;100.00
49841;BME280;35738;49.890;5.930;2023-02-04T04:23:17;97260.97;;;6.11;100.00
49841;BME280;35738;49.890;5.930;2023-02-04T04:25:44;97258.22;;;6.05;100.00
49841;BME280;35738;49.890;5.930;2023-02-04T04:28:10;97262.88;;;6.05;100.00
49841;BME280;35738;49.890;5.930;2023-02-04T04:30:37;97266.94;;;5.97;100.00
49841;BME280;35738;49.890;5.930;2023-02-04T04:33:03;97259.78;;;5.91;100.00
49841;BME280;35738;49.890;5.930;2023-02-04T04:35:30;97266.50;;;5.79;100.00
49841;BME280;35738;49.890;5.930;2023-02-04T04:37:57;97268.72;;;5.82;100.00
49841;BME280;35738;49.890;5.930;2023-02-04T04:40:23;97267.31;;;5.74;100.00
49841;BME280;35738;49.890;5.930;2023-02-04T04:42:50;97266.22;;;5.75;100.00
49841;BME280;35738;49.890;5.930;2023-02-04T04:45:16;97270.63;;;5.86;100.00
49841;BME280;35738;49.890;5.930;2023-02-04T04:47:43;97275.28;;;5.86;100.00
49841;BME280;35738;49.890;5.930;2023-02-04T04:50:10;97271.16;;;5.83;100.00
49841;BME280;35738;49.890;5.930;2023-02-04T04:52:36;97276.59;;;5.78;100.00
49841;BME280;35738;49.890;5.930;2023-02-04T04:55:04;97278.34;;;5.89;100.00
49841;BME280;35738;49.890;5.930;2023-02-04T04:57:31;97280.47;;;5.87;100.00
49841;BME280;35738;49.890;5.930;2023-02-04T04:59:57;97288.16;;;5.90;100.00
49841;BME280;35738;49.890;5.930;2023-02-04T05:02:24;97284.34;;;5.91;100.00
49841;BME280;35738;49.890;5.930;2023-02-04T05:04:51;97290.63;;;5.92;100.00
49841;BME280;35738;49.890;5.930;2023-02-04T05:07:17;97293.31;;;5.87;100.00
49841;BME280;35738;49.890;5.930;2023-02-04T05:09:44;97301.47;;;5.82;100.00
49841;BME280;35738;49.890;5.930;2023-02-04T05:12:10;97297.66;;;5.83;100.00
49841;BME280;35738;49.890;5.930;2023-02-04T05:14:37;97301.69;;;5.75;100.00
49841;BME280;35738;49.890;5.930;2023-02-04T05:17:03;97307.41;;;5.68;100.00
49841;BME280;35738;49.890;5.930;2023-02-04T05:19:30;97299.75;;;5.70;100.00
49841;BME280;35738;49.890;5.930;2023-02-04T05:21:56;97305.16;;;5.60;100.00
49841;BME280;35738;49.890;5.930;2023-02-04T05:24:27;97304.94;;;5.67;100.00
49841;BME280;35738;49.890;5.930;2023-02-04T05:26:54;97309.22;;;5.58;100.00
49841;BME280;35738;49.890;5.930;2023-02-04T05:29:20;97311.94;;;5.53;100.00
49841;BME280;35738;49.890;5.930;2023-02-04T05:31:47;97315.38;;;5.38;100.00
49841;BME280;35738;49.890;5.930;2023-02-04T05:34:13;97308.59;;;5.46;100.00
49841;BME280;35738;49.890;5.930;2023-02-04T05:36:40;97311.97;;;5.58;100.00
49841;BME280;35738;49.890;5.930;2023-02-04T05:39:06;97321.22;;;5.57;100.00
49841;BME280;35738;49.890;5.930;2023-02-04T05:41:33;97312.34;;;5.34;100.00
49841;BME280;35738;49.890;5.930;2023-02-04T05:43:59;97315.34;;;5.06;100.00
49841;BME280;35738;49.890;5.930;2023-02-04T05:46:26;97321.41;;;5.13;100.00
49841;BME280;35738;49.890;5.930;2023-02-04T05:48:53;97322.03;;;5.20;100.00
49841;BME280;35738;49.890;5.930;2023-02-04T05:51:19;97321.63;;;5.06;100.00
49841;BME280;35738;49.890;5.930;2023-02-04T05:53:46;97334.19;;;5.07;100.00
49841;BME280;35738;49.890;5.930;2023-02-04T05:56:12;97325.75;;;5.09;100.00
49841;BME280;35738;49.890;5.930;2023-02-04T05:58:39;97330.19;;;4.88;100.00
49841;BME280;35738;49.890;5.930;2023-02-04T06:01:06;97336.84;;;5.02;100.00
49841;BME280;35738;49.890;5.930;2023-02-04T06:03:33;97340.34;;;4.98;100.00
49841;BME280;35738;49.890;5.930;2023-02-04T06:06:00;97332.75;;;5.00;100.00
49841;BME280;35738;49.890;5.930;2023-02-04T06:08:27;97338.63;;;4.87;100.00
49841;BME280;35738;49.890;5.930;2023-02-04T06:10:54;97349.53;;;4.87;100.00
49841;BME280;35738;49.890;5.930;2023-02-04T06:13:21;97348.91;;;4.79;100.00
49841;BME280;35738;49.890;5.930;2023-02-04T06:15:47;97344.47;;;4.73;100.00
49841;BME280;35738;49.890;5.930;2023-02-04T06:18:14;97348.47;;;4.66;100.00
49841;BME280;35738;49.890;5.930;2023-02-04T06:20:40;97350.19;;;4.72;100.00
49841;BME280;35738;49.890;5.930;2023-02-04T06:23:07;97364.41;;;4.52;100.00
49841;BME280;35738;49.890;5.930;2023-02-04T06:25:33;97351.66;;;4.58;100.00
49841;BME280;35738;49.890;5.930;2023-02-04T06:28:00;97353.41;;;4.69;100.00
49841;BME280;35738;49.890;5.930;2023-02-04T06:30:27;97348.16;;;4.62;100.00
49841;BME280;35738;49.890;5.930;2023-02-04T06:32:53;97359.63;;;4.64;100.00
49841;BME280;35738;49.890;5.930;2023-02-04T06:35:20;97360.72;;;4.63;100.00
49841;BME280;35738;49.890;5.930;2023-02-04T06:37:46;97357.47;;;4.66;100.00
49841;BME280;35738;49.890;5.930;2023-02-04T06:40:14;97359.53;;;4.54;100.00
49841;BME280;35738;49.890;5.930;2023-02-04T06:42:40;97356.81;;;4.54;100.00
49841;BME280;35738;49.890;5.930;2023-02-04T06:45:07;97360.09;;;4.56;100.00
49841;BME280;35738;49.890;5.930;2023-02-04T06:47:34;97359.47;;;4.49;100.00
49841;BME280;35738;49.890;5.930;2023-02-04T06:50:00;97376.22;;;4.41;100.00
49841;BME280;35738;49.890;5.930;2023-02-04T06:52:27;97367.44;;;4.34;100.00
49841;BME280;35738;49.890;5.930;2023-02-04T06:54:54;97368.88;;;4.20;100.00
49841;BME280;35738;49.890;5.930;2023-02-04T06:57:20;97382.16;;;4.16;100.00
49841;BME280;35738;49.890;5.930;2023-02-04T06:59:47;97377.22;;;4.13;100.00
49841;BME280;35738;49.890;5.930;2023-02-04T07:02:13;97384.75;;;4.06;100.00
49841;BME280;35738;49.890;5.930;2023-02-04T07:04:40;97373.97;;;3.94;100.00
49841;BME280;35738;49.890;5.930;2023-02-04T07:07:12;97381.00;;;3.90;100.00
49841;BME280;35738;49.890;5.930;2023-02-04T07:09:39;97383.06;;;3.83;100.00
49841;BME280;35738;49.890;5.930;2023-02-04T07:12:06;97387.69;;;3.82;100.00
49841;BME280;35738;49.890;5.930;2023-02-04T07:14:33;97385.03;;;3.71;100.00
49841;BME280;35738;49.890;5.930;2023-02-04T07:16:59;97387.78;;;3.54;100.00
49841;BME280;35738;49.890;5.930;2023-02-04T07:19:26;97392.06;;;3.50;100.00
49841;BME280;35738;49.890;5.930;2023-02-04T07:21:53;97389.59;;;3.48;100.00
49841;BME280;35738;49.890;5.930;2023-02-04T07:24:22;97391.16;;;3.44;100.00
49841;BME280;35738;49.890;5.930;2023-02-04T07:26:49;97402.44;;;3.36;100.00
49841;BME280;35738;49.890;5.930;2023-02-04T07:29:16;97396.19;;;3.36;100.00
49841;BME280;35738;49.890;5.930;2023-02-04T07:31:51;97409.44;;;3.32;100.00
49841;BME280;35738;49.890;5.930;2023-02-04T07:34:18;97415.69;;;3.33;100.00
49841;BME280;35738;49.890;5.930;2023-02-04T07:36:45;97419.25;;;3.33;100.00
49841;BME280;35738;49.890;5.930;2023-02-04T07:39:11;97422.38;;;3.42;100.00
49841;BME280;35738;49.890;5.930;2023-02-04T07:41:38;97419.50;;;3.48;100.00
49841;BME280;35738;49.890;5.930;2023-02-04T07:44:04;97425.13;;;3.59;100.00
49841;BME280;35738;49.890;5.930;2023-02-04T07:46:31;97431.22;;;3.66;100.00
49841;BME280;35738;49.890;5.930;2023-02-04T07:48:57;97428.09;;;3.74;100.00
49841;BME280;35738;49.890;5.930;2023-02-04T07:51:24;97430.09;;;3.78;100.00
49841;BME280;35738;49.890;5.930;2023-02-04T07:53:53;97436.97;;;3.69;100.00
49841;BME280;35738;49.890;5.930;2023-02-04T07:56:19;97439.44;;;3.71;100.00
49841;BME280;35738;49.890;5.930;2023-02-04T07:58:46;97440.63;;;3.75;100.00
49841;BME280;35738;49.890;5.930;2023-02-04T08:01:13;97441.22;;;3.77;100.00
49841;BME280;35738;49.890;5.930;2023-02-04T08:03:39;97440.16;;;3.78;100.00
49841;BME280;35738;49.890;5.930;2023-02-04T08:06:08;97440.41;;;3.76;100.00
49841;BME280;35738;49.890;5.930;2023-02-04T08:08:34;97443.13;;;3.76;100.00
49841;BME280;35738;49.890;5.930;2023-02-04T08:11:01;97443.59;;;3.73;100.00
49841;BME280;35738;49.890;5.930;2023-02-04T08:13:28;97448.06;;;3.79;100.00
49841;BME280;35738;49.890;5.930;2023-02-04T08:15:54;97453.34;;;3.86;100.00
49841;BME280;35738;49.890;5.930;2023-02-04T08:18:21;97462.41;;;3.92;100.00
49841;BME280;35738;49.890;5.930;2023-02-04T08:20:50;97463.88;;;3.99;100.00
49841;BME280;35738;49.890;5.930;2023-02-04T08:23:17;97466.75;;;4.09;100.00
49841;BME280;35738;49.890;5.930;2023-02-04T08:25:43;97472.03;;;4.16;100.00
49841;BME280;35738;49.890;5.930;2023-02-04T08:28:10;97478.88;;;4.19;100.00
49841;BME280;35738;49.890;5.930;2023-02-04T08:30:37;97470.84;;;4.29;100.00
49841;BME280;35738;49.890;5.930;2023-02-04T08:33:04;97486.13;;;4.30;100.00
49841;BME280;35738;49.890;5.930;2023-02-04T08:35:30;97466.69;;;4.60;100.00
49841;BME280;35738;49.890;5.930;2023-02-04T08:37:57;97472.31;;;4.53;100.00
49841;BME280;35738;49.890;5.930;2023-02-04T08:40:23;97471.66;;;4.46;100.00
49841;BME280;35738;49.890;5.930;2023-02-04T08:42:50;97473.22;;;4.42;100.00
49841;BME280;35738;49.890;5.930;2023-02-04T08:45:17;97471.25;;;4.37;100.00
49841;BME280;35738;49.890;5.930;2023-02-04T08:47:43;97473.91;;;4.32;100.00
49841;BME280;35738;49.890;5.930;2023-02-04T08:50:10;97476.88;;;4.31;100.00
49841;BME280;35738;49.890;5.930;2023-02-04T08:52:37;97480.81;;;4.40;100.00
49841;BME280;35738;49.890;5.930;2023-02-04T08:55:04;97485.28;;;4.46;100.00
49841;BME280;35738;49.890;5.930;2023-02-04T08:57:30;97487.09;;;4.40;100.00
49841;BME280;35738;49.890;5.930;2023-02-04T08:59:57;97485.44;;;4.39;100.00
49841;BME280;35738;49.890;5.930;2023-02-04T09:02:24;97486.34;;;4.45;100.00
49841;BME280;35738;49.890;5.930;2023-02-04T09:04:50;97495.25;;;4.40;100.00
49841;BME280;35738;49.890;5.930;2023-02-04T09:07:17;97490.88;;;4.39;100.00
49841;BME280;35738;49.890;5.930;2023-02-04T09:09:43;97496.41;;;4.44;100.00
49841;BME280;35738;49.890;5.930;2023-02-04T09:12:10;97493.47;;;4.46;100.00
49841;BME280;35738;49.890;5.930;2023-02-04T09:14:37;97505.50;;;4.50;100.00
49841;BME280;35738;49.890;5.930;2023-02-04T09:17:03;97504.06;;;4.64;100.00
49841;BME280;35738;49.890;5.930;2023-02-04T09:19:31;97506.72;;;4.59;100.00
49841;BME280;35738;49.890;5.930;2023-02-04T09:21:57;97511.03;;;4.55;100.00
49841;BME280;35738;49.890;5.930;2023-02-04T09:24:24;97504.63;;;4.66;100.00
49841;BME280;35738;49.890;5.930;2023-02-04T09:26:50;97506.22;;;4.62;100.00
49841;BME280;35738;49.890;5.930;2023-02-04T09:29:17;97509.84;;;4.68;100.00
49841;BME280;35738;49.890;5.930;2023-02-04T09:31:44;97509.16;;;4.77;100.00
49841;BME280;35738;49.890;5.930;2023-02-04T09:34:10;97513.78;;;4.99;100.00
49841;BME280;35738;49.890;5.930;2023-02-04T09:36:37;97509.16;;;5.21;100.00
49841;BME280;35738;49.890;5.930;2023-02-04T09:39:07;97510.41;;;5.35;100.00
49841;BME280;35738;49.890;5.930;2023-02-04T09:41:37;97510.91;;;5.32;100.00
49841;BME280;35738;49.890;5.930;2023-02-04T09:44:11;97505.22;;;5.34;100.00
49841;BME280;35738;49.890;5.930;2023-02-04T09:46:42;97508.91;;;5.50;100.00
49841;BME280;35738;49.890;5.930;2023-02-04T09:49:11;97512.72;;;5.49;100.00
49841;BME280;35738;49.890;5.930;2023-02-04T09:51:38;97522.34;;;5.83;100.00
49841;BME280;35738;49.890;5.930;2023-02-04T09:54:08;97523.69;;;6.02;100.00
49841;BME280;35738;49.890;5.930;2023-02-04T09:56:37;97523.94;;;6.01;100.00
49841;BME280;35738;49.890;5.930;2023-02-04T09:59:15;97529.56;;;6.21;100.00
49841;BME280;35738;49.890;5.930;2023-02-04T10:01:42;97534.41;;;6.14;100.00
49841;BME280;35738;49.890;5.930;2023-02-04T10:04:13;97537.50;;;6.23;100.00
49841;BME280;35738;49.890;5.930;2023-02-04T10:06:41;97532.03;;;6.23;100.00
49841;BME280;35738;49.890;5.930;2023-02-04T10:09:13;97537.13;;;6.46;99.19
49841;BME280;35738;49.890;5.930;2023-02-04T10:11:42;97536.78;;;6.37;97.09
49841;BME280;35738;49.890;5.930;2023-02-04T10:14:14;97542.50;;;6.36;95.34
49841;BME280;35738;49.890;5.930;2023-02-04T10:16:42;97551.22;;;6.33;96.24
49841;BME280;35738;49.890;5.930;2023-02-04T10:19:14;97543.09;;;6.43;94.76
49841;BME280;35738;49.890;5.930;2023-02-04T10:21:43;97543.09;;;6.43;95.11
49841;BME280;35738;49.890;5.930;2023-02-04T10:24:14;97550.03;;;6.56;95.66
49841;BME280;35738;49.890;5.930;2023-02-04T10:26:41;97554.78;;;6.33;96.61
49841;BME280;35738;49.890;5.930;2023-02-04T10:29:16;97560.75;;;6.25;96.28
49841;BME280;35738;49.890;5.930;2023-02-04T10:31:46;97551.63;;;6.15;95.86
49841;BME280;35738;49.890;5.930;2023-02-04T10:34:15;97559.88;;;6.20;99.48
49841;BME280;35738;49.890;5.930;2023-02-04T10:36:46;97555.13;;;6.42;100.00
49841;BME280;35738;49.890;5.930;2023-02-04T10:41:58;97562.09;;;6.23;96.84
49841;BME280;35738;49.890;5.930;2023-02-04T10:44:31;97557.31;;;6.40;99.79
49841;BME280;35738;49.890;5.930;2023-02-04T10:47:03;97560.22;;;6.28;97.21
49841;BME280;35738;49.890;5.930;2023-02-04T10:49:31;97565.13;;;6.26;99.00
49841;BME280;35738;49.890;5.930;2023-02-04T10:51:59;97561.53;;;6.21;97.80
49841;BME280;35738;49.890;5.930;2023-02-04T10:54:36;97567.06;;;5.99;98.54
49841;BME280;35738;49.890;5.930;2023-02-04T10:57:22;97566.53;;;6.34;99.93
49841;BME280;35738;49.890;5.930;2023-02-04T10:59:52;97564.28;;;6.26;98.10
49841;BME280;35738;49.890;5.930;2023-02-04T11:05:20;97557.47;;;6.28;99.04
49841;BME280;35738;49.890;5.930;2023-02-04T11:07:47;97558.22;;;6.19;97.89
49841;BME280;35738;49.890;5.930;2023-02-04T11:10:18;97564.28;;;6.63;98.45
49841;BME280;35738;49.890;5.930;2023-02-04T11:12:57;97565.09;;;7.00;98.37
49841;BME280;35738;49.890;5.930;2023-02-04T11:15:46;97550.19;;;6.76;97.18
49841;BME280;35738;49.890;5.930;2023-02-04T11:20:50;97543.63;;;6.40;94.75
49841;BME280;35738;49.890;5.930;2023-02-04T11:26:02;97550.22;;;6.44;96.39
49841;BME280;35738;49.890;5.930;2023-02-04T11:33:46;97546.69;;;6.49;97.51
49841;BME280;35738;49.890;5.930;2023-02-04T11:36:14;97550.00;;;6.93;95.43
49841;BME280;35738;49.890;5.930;2023-02-04T11:38:46;97545.56;;;6.82;93.57
49841;BME280;35738;49.890;5.930;2023-02-04T11:41:28;97540.63;;;6.79;93.00
49841;BME280;35738;49.890;5.930;2023-02-04T11:43:56;97537.19;;;6.98;92.60
49841;BME280;35738;49.890;5.930;2023-02-04T11:46:27;97539.69;;;7.10;91.21
49841;BME280;35738;49.890;5.930;2023-02-04T11:48:56;97538.56;;;7.01;91.49
49841;BME280;35738;49.890;5.930;2023-02-04T11:51:29;97533.00;;;6.81;92.22
49841;BME280;35738;49.890;5.930;2023-02-04T11:53:56;97540.00;;;7.14;93.72
49841;BME280;35738;49.890;5.930;2023-02-04T11:56:27;97547.47;;;7.39;92.59
49841;BME280;35738;49.890;5.930;2023-02-04T11:58:56;97546.81;;;7.06;91.97
49841;BME280;35738;49.890;5.930;2023-02-04T12:01:29;97539.69;;;7.10;92.69
49841;BME280;35738;49.890;5.930;2023-02-04T12:03:58;97534.28;;;7.25;92.24
49841;BME280;35738;49.890;5.930;2023-02-04T12:06:28;97537.38;;;6.82;94.63
49841;BME280;35738;49.890;5.930;2023-02-04T12:11:31;97544.09;;;7.11;91.36
49841;BME280;35738;49.890;5.930;2023-02-04T12:14:06;97543.06;;;7.27;88.50
49841;BME280;35738;49.890;5.930;2023-02-04T12:16:43;97539.25;;;7.33;89.74
49841;BME280;35738;49.890;5.930;2023-02-04T12:19:10;97545.28;;;7.36;87.14
49841;BME280;35738;49.890;5.930;2023-02-04T12:21:38;97544.91;;;7.12;88.22
49841;BME280;35738;49.890;5.930;2023-02-04T12:24:05;97538.72;;;7.37;89.92
49841;BME280;35738;49.890;5.930;2023-02-04T12:26:32;97529.22;;;7.59;90.39
49841;BME280;35738;49.890;5.930;2023-02-04T12:28:59;97530.59;;;7.57;85.80
49841;BME280;35738;49.890;5.930;2023-02-04T12:31:28;97535.53;;;7.60;88.09
49841;BME280;35738;49.890;5.930;2023-02-04T12:33:55;97533.91;;;7.69;87.23
49841;BME280;35738;49.890;5.930;2023-02-04T12:36:22;97535.00;;;7.73;88.85
49841;BME280;35738;49.890;5.930;2023-02-04T12:38:49;97535.00;;;7.63;86.26
49841;BME280;35738;49.890;5.930;2023-02-04T12:41:16;97528.91;;;7.46;87.69
49841;BME280;35738;49.890;5.930;2023-02-04T12:43:45;97530.28;;;7.43;88.75
49841;BME280;35738;49.890;5.930;2023-02-04T12:46:16;97530.06;;;7.70;90.39
49841;BME280;35738;49.890;5.930;2023-02-04T12:48:43;97534.19;;;7.73;88.64
49841;BME280;35738;49.890;5.930;2023-02-04T12:51:10;97533.88;;;7.59;87.90
49841;BME280;35738;49.890;5.930;2023-02-04T12:53:36;97536.09;;;7.67;86.34
49841;BME280;35738;49.890;5.930;2023-02-04T12:56:03;97532.84;;;7.85;87.45
49841;BME280;35738;49.890;5.930;2023-02-04T12:58:30;97544.84;;;7.69;85.89
49841;BME280;35738;49.890;5.930;2023-02-04T13:00:56;97539.44;;;7.94;85.73
49841;BME280;35738;49.890;5.930;2023-02-04T13:03:23;97538.31;;;7.85;82.37
49841;BME280;35738;49.890;5.930;2023-02-04T13:05:50;97542.44;;;7.88;83.10
49841;BME280;35738;49.890;5.930;2023-02-04T13:08:17;97537.22;;;7.81;83.50
49841;BME280;35738;49.890;5.930;2023-02-04T13:10:43;97543.81;;;8.06;85.07
49841;BME280;35738;49.890;5.930;2023-02-04T13:13:10;97544.34;;;7.92;82.99
49841;BME280;35738;49.890;5.930;2023-02-04T13:15:37;97552.63;;;8.18;84.66
49841;BME280;35738;49.890;5.930;2023-02-04T13:18:03;97544.91;;;8.10;84.28
49841;BME280;35738;49.890;5.930;2023-02-04T13:20:30;97545.41;;;7.66;85.67
49841;BME280;35738;49.890;5.930;2023-02-04T13:22:56;97542.97;;;7.85;84.25